Latest Weather Observations for Walgett

IDN60801

Issued at 7:02 pm EST Thursday 27 April 2017 (issued every 30 minutes, with the page automatically refreshed every 10 minutes)

About weather observations | Map of weather stations | Latest weather observations for NSW | Other Formats
Station Details ID: 052088 Name: WALGETT AIRPORT AWS Lat: -30.04 Lon: 148.12 Height: 133.0 m
Data from the previous 72 hours. | See also: Recent months at Walgett
Date/Time
EST
Temp
°C
App
Temp
°C
Dew
Point
°C
Rel
Hum
%
Delta-T
°C
Wind Press
QNH
hPa
Press
MSL
hPa
Rain since
9am
mm
Dir  Spd
km/h
Gust
km/h
Spd
kts
Gust
kts
27/07:00pm 12.0 6.9 0.5 45 4.8 SSW 17 24 9 13 1020.3 1019.9 0.0
27/06:30pm 12.9 7.2 0.6 43 5.2 SSW 20 28 11 15 1019.8 1019.4 0.0
27/06:00pm 13.7 7.2 0.4 40 5.6 SSW 24 32 13 17 1019.4 1019.0 0.0
27/05:30pm 14.4 8.3 0.6 39 5.9 SSW 22 33 12 18 1019.0 1018.6 0.0
27/05:00pm 15.5 9.0 0.5 36 6.5 SSW 24 35 13 19 1018.9 1018.5 0.0
27/04:30pm 16.2 9.3 0.3 34 6.9 SW 26 39 14 21 1018.5 1018.1 0.0
27/04:00pm 16.5 8.5 0.6 34 6.9 SSW 32 43 17 23 1018.5 1018.1 0.0
27/03:30pm 16.8 9.6 0.9 34 7.0 SSW 28 43 15 23 1018.4 1018.0 0.0
27/03:00pm 16.8 9.2 0.5 33 7.1 SW 30 48 16 26 1017.9 1017.5 0.0
27/02:30pm 17.2 10.5 1.2 34 7.1 SSW 26 41 14 22 1018.0 1017.6 0.0
27/02:00pm 16.9 9.0 1.0 34 7.0 S 32 43 17 23 1017.9 1017.5 0.0
27/01:30pm 16.9 - - - - SSW 28 35 15 19 1018.0 1017.6 0.0
27/01:00pm 16.5 9.1 1.8 37 6.6 SSW 30 43 16 23 1018.2 1017.8 0.0
27/12:30pm 15.9 9.6 1.6 38 6.3 SW 24 39 13 21 1018.6 1018.2 0.0
27/12:00pm 15.3 8.9 3.1 44 5.5 SSW 26 39 14 21 1018.9 1018.5 0.0
27/11:30am 13.6 7.6 3.4 50 4.6 SSW 24 33 13 18 1019.4 1019.0 0.0
27/11:00am 11.6 6.0 3.4 57 3.6 SW 22 28 12 15 1019.8 1019.4 0.0
27/10:30am 11.7 6.1 3.5 57 3.7 SSW 22 30 12 16 1020.0 1019.6 0.0
27/10:00am 12.4 6.2 4.1 57 3.8 SSW 26 33 14 18 1019.9 1019.5 0.0
27/09:30am 11.7 4.9 3.2 56 3.8 SSW 28 43 15 23 1020.0 1019.6 0.0
27/09:00am 11.5 4.4 3.5 58 3.5 SSW 30 39 16 21 1019.9 1019.5 0.0
27/08:30am 10.0 3.7 3.7 65 2.8 SSW 26 37 14 20 1019.9 1019.5 0.0
27/08:00am 8.8 3.2 3.6 70 2.3 SW 22 32 12 17 1019.6 1019.2 0.0
27/07:30am 7.8 3.3 4.0 77 1.7 SW 17 24 9 13 1019.1 1018.7 0.0
27/07:00am 6.1 2.2 3.4 83 1.1 WSW 13 17 7 9 1018.9 1018.5 0.0
27/06:30am 6.3 2.4 3.3 81 1.3 SW 13 19 7 10 1018.7 1018.3 0.0
27/06:00am 6.7 2.5 3.7 81 1.3 SW 15 19 8 10 1018.5 1018.1 0.0
27/05:30am 6.3 2.4 3.5 82 1.2 SW 13 17 7 9 1018.2 1017.8 0.0
27/05:00am 6.3 2.8 3.6 83 1.1 WSW 11 15 6 8 1017.9 1017.5 0.0
27/04:30am 6.0 2.1 3.2 82 1.2 WSW 13 17 7 9 1017.8 1017.4 0.0
27/04:00am 7.0 2.8 3.6 79 1.5 WSW 15 19 8 10 1017.6 1017.2 0.0
27/03:30am 6.3 2.4 3.6 83 1.1 WSW 13 17 7 9 1017.5 1017.1 0.0
27/03:00am 6.7 3.1 3.1 78 1.5 WSW 11 13 6 7 1017.4 1017.0 0.0
27/02:30am 8.1 4.3 4.1 76 1.8 SW 13 17 7 9 1017.1 1016.8 0.0
27/02:00am 7.9 4.1 4.1 77 1.7 WSW 13 17 7 9 1017.4 1017.0 0.0
27/01:30am 7.4 3.9 3.5 76 1.7 WSW 11 13 6 7 1017.4 1017.0 0.0
27/01:00am 8.0 4.6 3.8 75 1.8 WSW 11 15 6 8 1017.5 1017.1 0.0
27/12:30am 7.7 3.9 3.9 77 1.6 WSW 13 15 7 8 1017.5 1017.1 0.0
27/12:00am 8.1 5.0 3.6 73 1.9 WSW 9 11 5 6 1017.5 1017.1 0.0
 
Date/Time
EST
Temp
°C
App
Temp
°C
Dew
Point
°C
Rel
Hum
%
Delta-T
°C
Wind Press
QNH
hPa
Press
MSL
hPa
Rain since
9am
mm
Dir  Spd
km/h
Gust
km/h
Spd
kts
Gust
kts
26/11:30pm 9.5 6.1 4.1 69 2.4 SW 11 15 6 8 1017.5 1017.1 0.0
26/11:00pm 10.0 6.2 4.0 66 2.7 SW 13 17 7 9 1017.6 1017.2 0.0
26/10:30pm 10.6 6.8 3.9 63 3.0 SW 13 17 7 9 1017.7 1017.3 0.0
26/10:00pm 11.4 6.9 4.2 61 3.2 SW 17 20 9 11 1017.7 1017.3 0.0
26/09:30pm 10.6 7.0 5.2 69 2.5 WSW 13 17 7 9 1017.6 1017.2 0.0
26/09:00pm 10.6 7.5 5.4 70 2.4 WSW 11 15 6 8 1017.1 1016.8 0.0
26/08:30pm 10.2 7.0 5.2 71 2.3 WSW 11 13 6 7 1016.7 1016.4 0.0
26/08:00pm 11.1 7.9 5.2 67 2.7 WSW 11 15 6 8 1016.3 1016.0 0.0
26/07:30pm 12.4 8.9 5.3 62 3.3 WSW 13 19 7 10 1015.8 1015.5 0.0
26/07:00pm 13.3 8.7 5.5 59 3.7 SW 19 24 10 13 1015.2 1014.8 0.0
26/06:30pm 13.8 9.0 5.7 58 3.9 SW 20 28 11 15 1014.6 1014.2 0.0
26/06:00pm 14.4 8.7 6.7 60 3.8 SW 26 37 14 20 1014.1 1013.7 0.0
26/05:30pm 15.2 8.9 7.5 60 3.8 SSW 30 41 16 22 1013.6 1013.2 0.0
26/05:00pm 16.9 11.0 7.3 53 4.8 SW 28 46 15 25 1012.8 1012.4 0.0
26/04:30pm 18.5 11.2 7.3 48 5.7 SW 35 50 19 27 1012.2 1011.8 0.0
26/04:08pm 19.2 11.6 7.6 47 6.0 SW 37 56 20 30 1011.8 1011.4 0.0
26/04:00pm 20.2 13.1 7.9 45 6.4 SW 35 48 19 26 1011.7 1011.3 0.0
26/03:39pm 21.7 14.1 6.0 36 7.9 WSW 35 54 19 29 1010.9 1010.5 0.0
26/03:30pm 21.8 13.8 5.7 35 8.1 WSW 37 54 20 29 1010.7 1010.3 0.0
26/03:13pm 22.2 14.6 5.6 34 8.4 WSW 35 54 19 29 1010.4 1010.0 0.0
26/03:00pm 21.5 13.2 6.2 37 7.8 WSW 39 50 21 27 1010.5 1010.1 0.0
26/02:30pm 21.4 13.9 6.5 38 7.6 W 35 48 19 26 1010.1 1009.7 0.0
26/02:02pm 22.3 15.6 7.3 38 7.8 W 32 50 17 27 1009.9 1009.5 0.0
26/02:00pm 21.8 15.5 7.6 40 7.4 W 30 44 16 24 1009.9 1009.5 0.0
26/01:46pm 22.9 16.3 8.6 40 7.6 WSW 33 52 18 28 1009.9 1009.5 0.0
26/01:30pm 23.2 15.9 7.3 36 8.3 W 35 50 19 27 1009.8 1009.4 0.0
26/01:00pm 22.7 15.5 7.7 38 7.9 W 35 50 19 27 1010.0 1009.6 0.0
26/12:30pm 22.6 16.0 8.7 41 7.4 W 33 46 18 25 1010.4 1010.0 0.0
26/12:00pm 22.4 16.6 9.6 44 7.0 WSW 30 44 16 24 1010.6 1010.2 0.0
26/11:56am 22.1 15.9 9.3 44 6.9 WSW 32 50 17 27 1010.7 1010.3 0.0
26/11:30am 22.1 16.4 9.9 46 6.7 WSW 30 41 16 22 1011.2 1010.8 0.0
26/11:00am 21.6 16.9 10.7 50 6.0 WSW 26 37 14 20 1011.6 1011.2 0.0
26/10:30am 21.6 16.5 10.7 50 6.0 WSW 28 41 15 22 1011.9 1011.5 0.0
26/10:00am 20.9 17.2 12.8 60 4.6 WSW 24 35 13 19 1012.0 1011.6 0.0
26/09:30am 19.7 16.4 14.1 70 3.3 WSW 24 32 13 17 1012.2 1011.8 0.0
26/09:00am 19.0 18.3 16.4 85 1.6 W 15 20 8 11 1012.2 1011.8 2.2
26/08:41am 17.8 17.0 16.0 89 1.1 W 15 19 8 10 1012.1 1011.7 2.2
26/08:30am 17.7 16.0 16.2 91 0.9 W 20 28 11 15 1012.1 1011.7 2.2
26/08:00am 17.9 16.9 16.6 92 0.8 W 17 20 9 11 1012.0 1011.6 1.8
26/07:30am 17.9 17.9 17.3 96 0.4 WNW 13 19 7 10 1012.0 1011.6 1.8
26/07:16am 17.8 18.2 17.2 96 0.4 WNW 11 15 6 8 1011.9 1011.5 1.8
26/07:00am 17.6 17.8 16.8 95 0.5 NW 11 13 6 7 1011.4 1011.0 1.8
26/06:52am 17.6 17.8 16.8 95 0.5 NW 11 13 6 7 1011.4 1011.0 1.8
26/06:30am 17.8 18.0 16.8 94 0.6 NW 11 17 6 9 1011.4 1011.0 1.8
26/06:00am 17.8 18.1 17.0 95 0.5 WNW 11 15 6 8 1011.4 1011.0 1.8
26/05:30am 17.8 18.4 16.8 94 0.6 WNW 9 13 5 7 1011.1 1010.7 1.8
26/05:20am 17.9 18.2 16.9 94 0.6 WNW 11 15 6 8 1011.0 1010.6 1.8
26/05:04am 17.8 18.4 16.7 93 0.7 WNW 9 15 5 8 1011.0 1010.6 1.8
26/05:00am 17.8 18.7 16.7 93 0.7 WNW 7 13 4 7 1010.7 1010.3 1.8
26/04:30am 17.9 18.1 16.8 93 0.7 WNW 11 17 6 9 1011.0 1010.6 1.8
26/04:16am 17.9 18.2 16.9 94 0.6 WNW 11 15 6 8 1011.2 1010.8 1.8
26/04:00am 17.9 17.7 16.8 93 0.7 NW 13 19 7 10 1011.2 1010.8 1.8
26/03:30am 17.8 18.0 16.8 94 0.6 NW 11 17 6 9 1011.2 1010.8 1.8
26/03:00am 17.7 17.1 16.7 94 0.6 NW 15 19 8 10 1011.6 1011.2 1.8
26/02:30am 17.6 17.0 16.6 94 0.6 NNW 15 20 8 11 1011.8 1011.4 1.8
26/02:00am 17.6 16.6 16.5 93 0.7 NW 17 22 9 12 1011.8 1011.4 1.8
26/01:30am 17.5 16.4 16.4 93 0.7 NNW 17 20 9 11 1011.8 1011.4 1.8
26/01:00am 17.4 16.3 16.3 93 0.7 NNW 17 20 9 11 1011.9 1011.5 1.8
26/12:30am 17.3 16.6 16.3 94 0.6 NNW 15 22 8 12 1012.1 1011.7 1.8
26/12:00am 17.4 17.1 16.4 94 0.6 NNW 13 17 7 9 1012.1 1011.7 1.8
 
Date/Time
EST
Temp
°C
App
Temp
°C
Dew
Point
°C
Rel
Hum
%
Delta-T
°C
Wind Press
QNH
hPa
Press
MSL
hPa
Rain since
9am
mm
Dir  Spd
km/h
Gust
km/h
Spd
kts
Gust
kts
25/11:30pm 17.2 17.3 16.4 95 0.5 N 11 15 6 8 1012.3 1011.9 1.8
25/11:00pm 17.4 17.8 16.3 93 0.7 N 9 11 5 6 1012.3 1011.9 1.8
25/10:30pm 17.8 18.0 16.7 93 0.7 NNW 11 15 6 8 1012.7 1012.3 1.8
25/10:00pm 17.8 17.5 16.5 92 0.8 N 13 17 7 9 1013.1 1012.7 1.8
25/09:30pm 18.0 17.7 16.5 91 0.9 N 13 17 7 9 1013.4 1013.0 1.8
25/09:00pm 17.9 18.6 16.2 90 1.0 N 7 11 4 6 1013.3 1012.9 1.6
25/08:30pm 17.9 18.3 16.2 90 1.0 N 9 13 5 7 1013.1 1012.7 1.6
25/08:00pm 17.5 17.7 15.8 90 1.0 N 9 11 5 6 1012.8 1012.4 1.6
25/07:30pm 18.0 18.0 16.3 90 1.0 N 11 17 6 9 1012.7 1012.3 1.6
25/07:00pm 18.1 17.7 16.3 89 1.1 N 13 15 7 8 1012.7 1012.3 1.6
25/06:30pm 18.1 18.6 16.6 91 0.9 N 9 11 5 6 1012.4 1012.0 1.6
25/06:00pm 18.1 19.0 16.6 91 0.9 N 7 9 4 5 1012.3 1011.9 1.6
25/05:30pm 18.4 18.6 16.7 90 1.0 NE 11 17 6 9 1012.1 1011.7 1.6
25/05:00pm 18.8 20.0 16.8 88 1.2 NNW 6 9 3 5 1012.7 1012.3 1.4
25/04:30pm 19.1 19.5 16.3 84 1.7 WSW 9 13 5 7 1012.9 1012.5 1.0
25/04:00pm 19.9 19.7 15.7 77 2.5 WSW 11 15 6 8 1013.0 1012.6 0.6
25/03:30pm 20.0 18.8 16.0 78 2.4 SW 17 26 9 14 1012.9 1012.5 0.6
25/03:00pm 19.6 16.8 15.3 76 2.5 SW 24 35 13 19 1012.8 1012.4 0.4
25/02:30pm 23.5 18.1 12.8 51 6.2 WSW 33 46 18 25 1012.3 1011.9 0.4
25/02:00pm 25.5 21.0 12.7 45 7.5 WSW 28 41 15 22 1011.9 1011.5 0.4
25/01:30pm 25.1 23.8 15.7 56 5.7 WSW 17 24 9 13 1012.0 1011.6 0.4
25/01:00pm 22.1 20.1 16.4 70 3.5 WNW 22 37 12 20 1012.4 1012.0 0.0
25/12:53pm 22.8 18.6 15.6 64 4.3 WNW 32 43 17 23 1012.6 1012.2 0.0
25/12:30pm 27.9 24.2 12.7 39 8.9 NNW 24 35 13 19 1012.4 1012.0 0.0
25/12:00pm 27.8 23.5 12.2 38 9.1 NNW 26 41 14 22 1012.9 1012.5 0.0
25/11:30am 28.0 24.2 12.4 38 9.1 NNW 24 32 13 17 1013.2 1012.8 0.0
25/11:00am 27.9 23.8 12.7 39 8.9 NNW 26 37 14 20 1013.7 1013.3 0.0
25/10:30am 26.3 22.2 12.7 43 7.9 N 26 33 14 18 1014.3 1013.9 0.0
25/10:00am 25.9 21.8 12.7 44 7.7 N 26 35 14 19 1014.6 1014.2 0.0
25/09:30am 24.9 21.2 12.8 47 7.0 N 24 33 13 18 1014.9 1014.5 0.0
25/09:00am 24.0 20.2 12.3 48 6.7 N 24 33 13 18 1015.1 1014.7 0.0
25/08:30am 23.2 19.1 11.6 48 6.6 NNE 24 39 13 21 1015.2 1014.8 0.0
25/08:00am 21.5 17.0 11.5 53 5.6 NNE 26 35 14 19 1015.1 1014.7 0.0
25/07:30am 20.3 17.0 11.5 57 4.9 NNE 20 26 11 14 1015.1 1014.7 0.0
25/07:00am 18.9 16.1 11.2 61 4.2 NNE 17 22 9 12 1015.1 1014.7 0.0
25/06:30am 17.9 15.1 11.2 65 3.7 NNE 17 20 9 11 1014.9 1014.5 0.0
25/06:00am 17.4 14.9 11.2 67 3.4 NNE 15 17 8 9 1014.7 1014.3 0.0
25/05:30am 17.9 15.5 11.5 66 3.5 NNE 15 17 8 9 1014.6 1014.2 0.0
25/05:00am 17.8 15.8 11.4 66 3.5 NNE 13 17 7 9 1014.6 1014.2 0.0
25/04:30am 18.1 15.7 11.4 65 3.7 NNE 15 19 8 10 1014.6 1014.2 0.0
25/04:00am 17.8 15.4 11.4 66 3.5 NNE 15 17 8 9 1014.4 1014.0 0.0
25/03:30am 18.4 16.4 11.5 64 3.8 NNE 13 17 7 9 1014.5 1014.1 0.0
25/03:00am 18.8 16.8 11.6 63 4.0 NNE 13 17 7 9 1014.6 1014.2 0.0
25/02:30am 19.4 17.0 11.4 60 4.4 NNE 15 17 8 9 1014.9 1014.5 0.0
25/02:00am 20.1 17.7 11.3 57 4.9 NNE 15 19 8 10 1015.2 1014.8 0.0
25/01:30am 20.5 18.3 12.2 59 4.7 NNE 15 19 8 10 1015.4 1015.0 0.0
25/01:00am 19.1 17.5 12.8 67 3.6 NNE 13 15 7 8 1015.8 1015.5 0.0
25/12:30am 19.0 17.3 12.5 66 3.7 NE 13 15 7 8 1016.0 1015.7 0.0
25/12:00am 19.8 17.9 11.8 60 4.5 NE 13 13 7 7 1016.3 1016.0 0.0
 
Date/Time
EST
Temp
°C
App
Temp
°C
Dew
Point
°C
Rel
Hum
%
Delta-T
°C
Wind Press
QNH
hPa
Press
MSL
hPa
Rain since
9am
mm
Dir  Spd
km/h
Gust
km/h
Spd
kts
Gust
kts
24/11:30pm 21.1 19.7 12.3 57 5.0 NE 11 13 6 7 1016.6 1016.3 0.0
24/11:00pm 20.8 20.0 13.0 61 4.5 NE 9 9 5 5 1016.8 1016.5 0.0
24/10:30pm 21.6 20.7 12.5 56 5.2 NE 9 11 5 6 1017.0 1016.7 0.0
24/10:00pm 21.5 21.1 12.9 58 4.9 NE 7 9 4 5 1017.1 1016.8 0.0
24/09:30pm 21.4 21.3 13.8 62 4.4 ENE 7 9 4 5 1017.1 1016.8 0.0
24/09:00pm 21.5 21.4 13.9 62 4.4 ENE 7 9 4 5 1017.1 1016.8 0.0
24/08:30pm 21.4 21.4 14.1 63 4.3 ENE 7 9 4 5 1017.1 1016.8 0.0
24/08:00pm 21.6 21.8 14.7 65 4.1 E 7 9 4 5 1017.1 1016.8 0.0
24/07:30pm 22.3 23.5 13.9 59 4.9 CALM 0 0 0 0 1017.0 1016.7 0.0

Other Formats:

Comma delimited format used in spreadsheet applications
http://www.bom.gov.au/fwo/IDN60801/IDN60801.95715.axf

JavaScript Object Notation format (JSON) in row-major order
http://www.bom.gov.au/fwo/IDN60801/IDN60801.95715.json